Time;durP1;ratioP1;P1;durP2;ratioP2;P2;SDS_P1;SDS_P2;PMS_P1;PMS_P2;Temp;Humidity;BMP_temperature;BMP_pressure;BME280_temperature;BME280_humidity;BME280_pressure;Samples;Min_cycle;Max_cycle;Signal;HPM_P1;HPM_P2
2024/04/15 00:00:43;;;;;;;1.30;0.70;;;;;;;13.95;100.00;99435.05;108383;1263;66107;-58
2024/04/15 00:03:09;;;;;;;1.00;0.70;;;;;;;13.94;100.00;99430.42;108532;1264;72528;-59
2024/04/15 00:05:38;;;;;;;1.20;0.60;;;;;;;13.91;100.00;99428.77;108467;1264;59297;-60
2024/04/15 00:08:06;;;;;;;0.80;0.60;;;;;;;13.89;100.00;99432.38;108380;1264;59130;-59
2024/04/15 00:10:37;;;;;;;1.70;0.60;;;;;;;13.86;100.00;99437.29;108516;1268;72650;-58
2024/04/15 00:13:03;;;;;;;0.90;0.70;;;;;;;13.83;100.00;99445.06;108102;1264;68175;-60
2024/04/15 00:15:31;;;;;;;2.10;0.70;;;;;;;13.80;100.00;99448.68;105724;1270;71757;-60
2024/04/15 00:17:58;;;;;;;1.20;0.80;;;;;;;13.80;100.00;99453.72;108744;1257;60416;-59
2024/04/15 00:20:26;;;;;;;1.30;0.60;;;;;;;13.81;100.00;99453.64;108708;1257;61398;-60
2024/04/15 00:22:53;;;;;;;2.10;0.60;;;;;;;13.81;100.00;99454.02;106167;1262;72617;-58
2024/04/15 00:25:20;;;;;;;3.00;0.80;;;;;;;13.81;100.00;99452.39;105833;1260;67965;-59
2024/04/15 00:27:47;;;;;;;1.00;0.80;;;;;;;13.81;100.00;99451.50;105813;1260;72773;-59
2024/04/15 00:30:14;;;;;;;1.50;0.80;;;;;;;13.79;100.00;99454.87;105835;1257;61307;-58
2024/04/15 00:32:41;;;;;;;0.90;0.70;;;;;;;13.77;100.00;99459.71;105854;1258;60463;-59
2024/04/15 00:35:07;;;;;;;2.40;1.00;;;;;;;13.74;100.00;99459.70;105786;1263;73262;-59
2024/04/15 00:37:34;;;;;;;4.50;0.70;;;;;;;13.71;100.00;99457.55;107553;1262;68018;-57
2024/04/15 00:40:01;;;;;;;2.80;0.70;;;;;;;13.68;100.00;99457.41;105852;1263;73162;-56
2024/04/15 00:42:28;;;;;;;1.90;0.70;;;;;;;13.67;100.00;99457.66;106952;1260;62734;-60
2024/04/15 00:44:55;;;;;;;1.70;0.90;;;;;;;13.67;100.00;99460.70;105846;1270;61264;-58
2024/04/15 00:47:21;;;;;;;3.00;0.90;;;;;;;13.68;100.00;99463.77;105765;1273;74483;-57
2024/04/15 00:49:49;;;;;;;2.10;1.10;;;;;;;13.68;100.00;99464.10;105761;1262;66464;-56
2024/04/15 00:52:15;;;;;;;0.90;0.70;;;;;;;13.68;100.00;99468.77;105940;1271;72591;-58
2024/04/15 00:54:43;;;;;;;1.40;0.80;;;;;;;13.63;100.00;99469.83;105777;1262;60846;-59
2024/04/15 00:57:10;;;;;;;0.80;0.70;;;;;;;13.56;100.00;99476.04;105724;1258;60466;-59
2024/04/15 00:59:37;;;;;;;2.30;0.80;;;;;;;13.51;100.00;99475.67;105971;1259;73027;-58
2024/04/15 01:02:04;;;;;;;1.30;0.60;;;;;;;13.46;100.00;99474.90;106223;1259;66981;-58
2024/04/15 01:04:31;;;;;;;1.40;0.60;;;;;;;13.41;100.00;99470.73;106147;1263;72347;-59
2024/04/15 01:06:58;;;;;;;2.50;0.70;;;;;;;13.37;100.00;99474.92;106196;1256;63849;-58
2024/04/15 01:09:25;;;;;;;2.20;0.60;;;;;;;13.35;100.00;99479.02;106082;1255;60431;-58
2024/04/15 01:11:52;;;;;;;0.80;0.50;;;;;;;13.33;100.00;99474.45;106144;1275;74034;-58
2024/04/15 01:14:19;;;;;;;3.20;0.60;;;;;;;13.31;100.00;99474.25;106061;1259;64778;-59
2024/04/15 01:16:46;;;;;;;4.60;0.70;;;;;;;13.28;100.00;99480.17;106305;1257;73099;-60
2024/04/15 01:19:12;;;;;;;0.90;0.70;;;;;;;13.24;100.00;99481.89;106020;1257;60303;-60
2024/04/15 01:21:40;;;;;;;2.10;0.60;;;;;;;13.19;100.00;99482.90;106284;1257;60517;-58
2024/04/15 01:24:07;;;;;;;0.70;0.60;;;;;;;13.14;100.00;99483.23;106031;1255;73932;-61
2024/04/15 01:26:34;;;;;;;0.80;0.60;;;;;;;13.09;100.00;99485.31;106269;1256;67056;-61
2024/04/15 01:29:01;;;;;;;1.90;0.60;;;;;;;13.05;100.00;99492.42;106098;1257;72908;-57
2024/04/15 01:31:28;;;;;;;0.90;0.60;;;;;;;13.01;100.00;99490.00;106021;1272;60514;-56
2024/04/15 01:33:55;;;;;;;1.50;0.50;;;;;;;12.97;100.00;99494.56;106050;1275;60387;-55
2024/04/15 01:36:21;;;;;;;1.70;0.60;;;;;;;12.93;100.00;99491.42;106293;1257;73768;-56
2024/04/15 01:38:48;;;;;;;2.40;0.60;;;;;;;12.88;100.00;99492.41;105992;1257;66953;-57
2024/04/15 01:41:15;;;;;;;3.00;0.70;;;;;;;12.83;100.00;99492.73;106099;1258;72554;-57
2024/04/15 01:43:42;;;;;;;2.60;0.80;;;;;;;12.78;100.00;99491.61;106027;1254;60572;-57
2024/04/15 01:46:09;;;;;;;1.80;1.10;;;;;;;12.71;100.00;99490.05;106033;1266;61356;-57
2024/04/15 01:48:36;;;;;;;1.90;0.70;;;;;;;12.63;100.00;99488.42;105986;1267;73736;-57
2024/04/15 01:51:03;;;;;;;1.90;0.70;;;;;;;12.54;100.00;99484.27;106055;1257;67131;-55
2024/04/15 01:53:30;;;;;;;3.10;0.70;;;;;;;12.48;100.00;99484.80;106035;1259;72978;-56
2024/04/15 01:55:57;;;;;;;2.70;0.70;;;;;;;12.43;100.00;99483.98;106065;1254;60489;-55
2024/04/15 01:58:24;;;;;;;1.90;0.70;;;;;;;12.39;100.00;99482.05;106179;1259;60573;-56
2024/04/15 02:00:51;;;;;;;1.50;0.90;;;;;;;12.36;100.00;99479.91;106104;1257;73746;-58
2024/04/15 02:03:18;;;;;;;1.00;0.70;;;;;;;12.33;100.00;99479.06;106203;1257;68543;-57
2024/04/15 02:05:44;;;;;;;1.60;0.70;;;;;;;12.28;100.00;99478.45;106090;1257;73063;-55
2024/04/15 02:08:11;;;;;;;2.10;0.60;;;;;;;12.22;100.00;99475.58;106101;1253;60312;-57
2024/04/15 02:10:38;;;;;;;2.70;0.70;;;;;;;12.15;100.00;99473.85;106140;1257;60597;-57
2024/04/15 02:13:05;;;;;;;1.20;0.70;;;;;;;12.08;100.00;99474.23;106394;1256;74533;-58
2024/04/15 02:15:32;;;;;;;1.70;0.40;;;;;;;12.02;100.00;99468.84;106202;1259;66973;-56
2024/04/15 02:17:58;;;;;;;3.20;0.50;;;;;;;11.95;100.00;99471.21;106016;1255;72810;-57
2024/04/15 02:20:25;;;;;;;0.40;0.30;;;;;;;11.90;100.00;99474.02;106141;1261;60680;-58
2024/04/15 02:22:52;;;;;;;1.20;0.40;;;;;;;11.86;100.00;99474.10;106034;1258;60531;-58
2024/04/15 02:25:19;;;;;;;0.60;0.50;;;;;;;11.82;100.00;99472.20;106292;1257;74113;-56
2024/04/15 02:27:46;;;;;;;0.50;0.30;;;;;;;11.78;100.00;99471.50;106100;1266;67193;-56
2024/04/15 02:30:13;;;;;;;0.40;0.40;;;;;;;11.74;100.00;99469.89;106248;1254;72613;-56
2024/04/15 02:32:42;;;;;;;1.00;0.40;;;;;;;11.66;100.00;99466.38;106128;1257;60429;-56
2024/04/15 02:35:09;;;;;;;1.90;0.50;;;;;;;11.58;100.00;99471.36;106061;1254;60654;-56
2024/04/15 02:37:35;;;;;;;1.40;0.40;;;;;;;11.50;100.00;99475.96;106099;1254;74303;-56
2024/04/15 02:40:02;;;;;;;1.80;0.30;;;;;;;11.41;100.00;99473.78;106061;1257;65048;-56
2024/04/15 02:42:29;;;;;;;4.40;0.50;;;;;;;11.33;100.00;99479.96;106061;1254;72411;-56
2024/04/15 02:44:56;;;;;;;2.70;0.40;;;;;;;11.25;100.00;99485.80;106095;1254;60556;-59
2024/04/15 02:47:23;;;;;;;1.90;0.50;;;;;;;11.18;100.00;99494.28;106072;1254;61317;-57
2024/04/15 02:49:50;;;;;;;1.00;0.50;;;;;;;11.12;100.00;99493.52;106076;1253;72333;-56
2024/04/15 02:52:16;;;;;;;0.70;0.60;;;;;;;11.07;100.00;99494.90;106091;1257;67142;-56
2024/04/15 02:54:43;;;;;;;0.90;0.50;;;;;;;11.03;100.00;99494.92;106046;1254;72403;-55
2024/04/15 02:57:10;;;;;;;2.00;0.40;;;;;;;10.98;100.00;99497.86;107002;1257;60550;-55
2024/04/15 02:59:38;;;;;;;1.20;0.50;;;;;;;10.95;100.00;99498.04;106120;1254;61062;-57
2024/04/15 03:02:05;;;;;;;1.90;0.70;;;;;;;10.93;100.00;99497.61;106361;1254;74869;-58
2024/04/15 03:04:32;;;;;;;0.70;0.40;;;;;;;10.87;100.00;99495.58;109292;1253;68505;-55
2024/04/15 03:06:59;;;;;;;1.00;0.50;;;;;;;10.78;100.00;99501.11;109156;1253;71206;-55
2024/04/15 03:09:26;;;;;;;4.20;0.50;;;;;;;10.68;100.00;99510.61;109117;1254;61304;-55
2024/04/15 03:11:52;;;;;;;2.60;0.60;;;;;;;10.58;100.00;99515.25;109327;1253;60608;-56
2024/04/15 03:14:19;;;;;;;0.60;0.50;;;;;;;10.49;100.00;99519.29;109209;1254;73475;-55
2024/04/15 03:16:46;;;;;;;1.70;0.60;;;;;;;10.43;100.00;99516.40;109158;1254;66973;-55
2024/04/15 03:19:15;;;;;;;1.30;0.60;;;;;;;10.38;100.00;99523.34;109074;1253;71487;-55
2024/04/15 03:21:41;;;;;;;1.00;0.50;;;;;;;10.32;100.00;99532.92;107797;1256;61860;-57
2024/04/15 03:24:08;;;;;;;4.20;0.60;;;;;;;10.27;100.00;99534.98;106068;1256;61375;-56
2024/04/15 03:26:35;;;;;;;1.70;0.80;;;;;;;10.24;100.00;99534.93;106151;1268;74952;-57
2024/04/15 03:29:02;;;;;;;1.10;0.80;;;;;;;10.23;100.00;99534.26;109109;1254;68306;-56
2024/04/15 03:31:28;;;;;;;1.20;0.90;;;;;;;10.24;100.00;99537.80;109148;1254;71388;-56
2024/04/15 03:33:55;;;;;;;1.70;1.00;;;;;;;10.24;100.00;99541.42;109135;1253;60527;-57
2024/04/15 03:36:23;;;;;;;3.90;1.10;;;;;;;10.22;100.00;99541.48;109135;1254;60704;-56
2024/04/15 03:38:51;;;;;;;4.00;1.50;;;;;;;10.21;100.00;99545.85;109200;1253;75576;-56
2024/04/15 03:41:17;;;;;;;3.90;2.10;;;;;;;10.18;100.00;99543.50;109325;1254;66191;-57
2024/04/15 03:43:44;;;;;;;5.30;2.60;;;;;;;10.18;100.00;99540.30;108629;1253;72515;-58
2024/04/15 03:46:10;;;;;;;3.30;2.80;;;;;;;10.17;100.00;99537.45;108619;1252;59922;-56
2024/04/15 03:48:37;;;;;;;4.90;2.10;;;;;;;10.14;100.00;99534.88;106023;1258;59869;-58
2024/04/15 03:51:04;;;;;;;4.00;1.50;;;;;;;10.14;100.00;99533.63;106061;1257;74432;-56
2024/04/15 03:53:31;;;;;;;3.70;1.80;;;;;;;10.13;100.00;99532.38;106055;1266;67596;-56
2024/04/15 03:55:58;;;;;;;3.00;1.10;;;;;;;10.16;100.00;99532.63;106401;1256;73345;-55
2024/04/15 03:58:26;;;;;;;6.20;2.30;;;;;;;10.20;100.00;99528.52;106140;1256;61176;-57
2024/04/15 04:00:59;;;;;;;6.20;2.50;;;;;;;10.24;100.00;99519.52;106052;1259;60177;-56
2024/04/15 04:03:26;;;;;;;6.20;2.50;;;;;;;10.33;100.00;99516.73;106396;1256;73698;-57
2024/04/15 04:05:54;;;;;;;4.90;2.90;;;;;;;10.48;100.00;99516.30;106005;1257;66996;-55
2024/04/15 04:08:41;;;;;;;8.40;3.10;;;;;;;10.73;100.00;99518.44;106086;1258;72911;-56
2024/04/15 04:11:09;;;;;;;3.80;1.20;;;;;;;11.05;100.00;99519.41;106211;1257;61180;-57
2024/04/15 04:13:36;;;;;;;4.70;1.00;;;;;;;11.37;100.00;99520.67;106082;1254;60931;-56
2024/04/15 04:16:03;;;;;;;5.40;1.50;;;;;;;11.67;100.00;99515.79;106041;1257;74618;-56
2024/04/15 04:18:30;;;;;;;2.10;1.00;;;;;;;12.00;100.00;99510.84;106672;1254;66262;-57
2024/04/15 04:20:57;;;;;;;2.80;1.10;;;;;;;12.36;100.00;99514.64;106083;1266;72652;-56
2024/04/15 04:23:24;;;;;;;1.80;0.90;;;;;;;12.71;100.00;99517.58;106323;1267;65014;-57
2024/04/15 04:25:51;;;;;;;2.00;0.90;;;;;;;13.01;100.00;99520.08;106143;1253;61249;-56
2024/04/15 04:28:18;;;;;;;2.00;0.80;;;;;;;13.26;100.00;99521.04;106102;1257;75068;-56
2024/04/15 04:30:45;;;;;;;2.60;0.80;;;;;;;13.50;100.00;99522.80;106109;1257;66255;-56
2024/04/15 04:33:12;;;;;;;2.50;1.10;;;;;;;13.78;100.00;99524.19;106185;1257;75275;-57
2024/04/15 04:35:39;;;;;;;3.20;1.30;;;;;;;14.06;100.00;99525.56;106146;1255;61295;-58
2024/04/15 04:38:06;;;;;;;4.00;1.60;;;;;;;14.35;100.00;99529.98;106336;1257;61185;-56
2024/04/15 04:40:33;;;;;;;6.30;3.30;;;;;;;14.62;100.00;99530.82;106421;1257;74890;-56
2024/04/15 04:43:00;;;;;;;8.80;3.70;;;;;;;14.75;100.00;99528.64;106082;1257;66950;-56
2024/04/15 04:45:27;;;;;;;6.10;3.60;;;;;;;14.77;100.00;99527.83;106387;1253;72849;-57
2024/04/15 04:47:54;;;;;;;6.40;3.00;;;;;;;14.77;100.00;99520.21;105948;1256;61290;-55
2024/04/15 04:50:22;;;;;;;8.50;2.80;;;;;;;14.71;100.00;99520.66;105933;1254;61122;-58
2024/04/15 04:52:49;;;;;;;5.60;2.20;;;;;;;14.63;100.00;99531.70;106438;1257;76495;-56
2024/04/15 04:55:17;;;;;;;3.90;1.80;;;;;;;14.49;100.00;99529.59;106158;1257;67051;-54
2024/04/15 04:57:43;;;;;;;3.90;1.30;;;;;;;14.34;100.00;99521.71;106134;1257;71046;-55
2024/04/15 05:00:11;;;;;;;4.20;1.20;;;;;;;14.23;100.00;99517.40;106049;1254;61212;-55
2024/04/15 05:02:38;;;;;;;3.90;1.30;;;;;;;14.12;100.00;99517.25;106355;1254;60947;-58
2024/04/15 05:05:05;;;;;;;3.40;0.90;;;;;;;13.98;100.00;99512.53;106304;1257;74983;-55
2024/04/15 05:07:32;;;;;;;3.70;1.00;;;;;;;13.88;100.00;99507.64;106096;1257;66999;-55
2024/04/15 05:09:59;;;;;;;3.60;0.90;;;;;;;13.81;100.00;99509.22;106000;1253;72293;-56
2024/04/15 05:12:26;;;;;;;2.40;1.00;;;;;;;13.70;100.00;99501.10;106076;1257;61157;-59
2024/04/15 05:14:53;;;;;;;1.60;1.00;;;;;;;13.61;100.00;99489.57;106746;1257;61181;-58
2024/04/15 05:17:20;;;;;;;1.40;0.70;;;;;;;13.60;100.00;99490.60;106024;1267;74261;-58
2024/04/15 05:19:47;;;;;;;2.50;0.80;;;;;;;13.59;100.00;99494.22;106145;1256;66589;-56
2024/04/15 05:22:14;;;;;;;2.30;0.60;;;;;;;13.58;100.00;99494.27;106074;1254;72437;-55
2024/04/15 05:24:41;;;;;;;1.00;0.50;;;;;;;13.61;100.00;99490.30;106119;1254;60057;-55
2024/04/15 05:27:08;;;;;;;2.10;0.60;;;;;;;13.68;100.00;99494.59;106392;1257;62639;-56
2024/04/15 05:29:34;;;;;;;3.10;0.90;;;;;;;13.73;100.00;99491.54;106069;1256;75364;-57
2024/04/15 05:32:01;;;;;;;2.50;0.80;;;;;;;13.76;100.00;99487.04;106102;1255;64789;-57
2024/04/15 05:34:28;;;;;;;3.70;1.00;;;;;;;13.81;100.00;99483.20;106094;1255;71860;-55
2024/04/15 05:36:55;;;;;;;2.90;1.00;;;;;;;13.87;100.00;99485.56;105985;1257;61401;-56
2024/04/15 05:39:22;;;;;;;2.70;0.70;;;;;;;13.90;100.00;99490.18;106105;1266;61310;-55
2024/04/15 05:41:49;;;;;;;1.20;0.60;;;;;;;13.92;100.00;99487.02;106083;1267;74266;-55
2024/04/15 05:44:16;;;;;;;0.70;0.40;;;;;;;13.97;100.00;99485.02;106270;1256;66631;-55
2024/04/15 05:46:52;;;;;;;0.60;0.30;;;;;;;14.06;100.00;99479.79;106067;1258;71657;-58
2024/04/15 05:49:19;;;;;;;1.30;0.30;;;;;;;14.13;100.00;99479.80;106011;1254;61383;-56
2024/04/15 05:51:46;;;;;;;1.00;0.30;;;;;;;14.21;100.00;99483.66;106166;1255;61401;-55
2024/04/15 05:54:13;;;;;;;0.60;0.30;;;;;;;14.26;100.00;99484.40;106098;1261;74561;-56
2024/04/15 05:56:40;;;;;;;0.20;0.20;;;;;;;14.30;100.00;99481.73;106127;1256;65193;-55
2024/04/15 05:59:06;;;;;;;0.90;0.30;;;;;;;14.35;100.00;99478.69;106084;1257;71425;-56
2024/04/15 06:01:33;;;;;;;0.60;0.20;;;;;;;14.41;100.00;99479.41;106083;1257;61234;-57
2024/04/15 06:04:00;;;;;;;0.40;0.20;;;;;;;14.48;100.00;99477.67;106057;1268;61444;-56
2024/04/15 06:06:27;;;;;;;2.30;0.30;;;;;;;14.53;100.00;99472.08;106186;1253;73846;-57
2024/04/15 06:08:54;;;;;;;3.30;0.30;;;;;;;14.58;100.00;99474.41;106016;1257;66727;-56
2024/04/15 06:11:21;;;;;;;1.00;0.20;;;;;;;14.64;100.00;99480.48;106082;1257;71581;-56
2024/04/15 06:13:48;;;;;;;1.30;0.30;;;;;;;14.71;100.00;99478.06;106025;1257;62061;-57
2024/04/15 06:16:14;;;;;;;2.20;0.30;;;;;;;14.76;100.00;99477.48;106496;1257;61290;-57
2024/04/15 06:18:42;;;;;;;1.50;0.30;;;;;;;14.80;100.00;99485.50;107529;1256;75007;-56
2024/04/15 06:21:10;;;;;;;1.80;0.30;;;;;;;14.85;100.00;99481.25;108972;1253;67072;-56
2024/04/15 06:23:37;;;;;;;3.10;0.60;;;;;;;14.91;100.00;99485.85;109060;1254;72142;-55
2024/04/15 06:26:04;;;;;;;0.80;0.30;;;;;;;14.98;100.00;99483.91;109104;1253;59375;-54
2024/04/15 06:28:31;;;;;;;0.70;0.30;;;;;;;15.06;100.00;99479.89;109163;1252;59161;-58
2024/04/15 06:30:57;;;;;;;1.00;0.40;;;;;;;15.14;100.00;99480.01;109137;1253;75164;-55
2024/04/15 06:33:25;;;;;;;1.60;0.30;;;;;;;15.22;100.00;99481.27;109211;1253;66865;-56
2024/04/15 06:35:53;;;;;;;1.90;0.30;;;;;;;15.29;100.00;99472.65;109007;1253;72653;-55
2024/04/15 06:38:20;;;;;;;1.60;0.30;;;;;;;15.34;100.00;99472.81;109071;1253;59410;-57
2024/04/15 06:40:47;;;;;;;2.40;0.40;;;;;;;15.39;100.00;99473.92;108583;1253;59292;-56
2024/04/15 06:43:13;;;;;;;3.00;0.40;;;;;;;15.40;100.00;99466.08;106087;1256;75345;-57
2024/04/15 06:45:40;;;;;;;1.70;0.40;;;;;;;15.38;100.00;99460.05;106144;1257;66639;-56
2024/04/15 06:48:07;;;;;;;6.50;0.40;;;;;;;15.37;100.00;99451.26;109149;1252;73062;-57
2024/04/15 06:50:35;;;;;;;1.60;0.40;;;;;;;15.41;100.00;99450.42;109226;1253;59688;-52
2024/04/15 06:53:04;;;;;;;0.60;0.40;;;;;;;15.45;100.00;99454.52;109136;1252;59232;-55
2024/04/15 06:55:30;;;;;;;1.40;0.40;;;;;;;15.44;100.00;99452.37;109134;1253;74530;-54
2024/04/15 06:57:57;;;;;;;2.50;0.40;;;;;;;15.45;100.00;99455.73;106304;1257;66964;-57
2024/04/15 07:00:24;;;;;;;3.50;0.30;;;;;;;15.47;100.00;99452.12;108390;1252;72341;-59
2024/04/15 07:02:52;;;;;;;0.50;0.30;;;;;;;15.46;100.00;99452.25;106041;1254;61300;-61
2024/04/15 07:05:19;;;;;;;1.10;0.40;;;;;;;15.42;100.00;99450.32;109184;1253;60021;-57
2024/04/15 07:07:46;;;;;;;0.90;0.40;;;;;;;15.45;100.00;99446.55;107813;1252;73439;-58
2024/04/15 07:10:13;;;;;;;2.00;0.30;;;;;;;15.48;100.00;99445.04;106180;1256;67977;-57
2024/04/15 07:12:40;;;;;;;1.90;0.40;;;;;;;15.54;100.00;99447.33;106069;1253;70711;-58
2024/04/15 07:15:08;;;;;;;3.90;0.40;;;;;;;15.60;100.00;99448.38;106030;1255;61347;-60
2024/04/15 07:17:38;;;;;;;1.00;0.50;;;;;;;15.65;100.00;99451.80;106095;1254;61270;-60
2024/04/15 07:20:06;;;;;;;0.60;0.30;;;;;;;15.68;100.00;99454.65;108634;1252;73591;-60
2024/04/15 07:22:33;;;;;;;1.40;0.40;;;;;;;15.71;100.00;99443.16;106256;1257;67668;-60
2024/04/15 07:25:02;;;;;;;3.20;0.40;;;;;;;15.76;100.00;99439.36;106589;1252;73176;-60
2024/04/15 07:27:33;;;;;;;2.40;0.40;;;;;;;15.82;100.00;99434.34;106139;1257;61376;-57
2024/04/15 07:30:00;;;;;;;0.70;0.30;;;;;;;15.88;100.00;99424.19;106299;1259;61264;-61
2024/04/15 07:32:27;;;;;;;0.70;0.40;;;;;;;15.93;100.00;99422.16;106471;1257;74056;-59
2024/04/15 07:34:54;;;;;;;0.80;0.40;;;;;;;15.98;100.00;99418.55;106051;1257;65851;-60
2024/04/15 07:37:21;;;;;;;0.60;0.40;;;;;;;16.02;100.00;99413.17;106026;1253;72373;-59
2024/04/15 07:39:48;;;;;;;1.90;0.50;;;;;;;16.02;100.00;99405.74;106149;1258;61309;-59
2024/04/15 07:42:16;;;;;;;2.70;0.50;;;;;;;15.99;100.00;99402.90;106753;1256;61357;-61
2024/04/15 07:44:57;;;;;;;0.70;0.50;;;;;;;16.01;100.00;99393.17;106086;1253;74323;-58
2024/04/15 07:47:24;;;;;;;0.50;0.40;;;;;;;16.05;100.00;99383.46;106273;1256;66886;-58
2024/04/15 07:49:51;;;;;;;1.50;0.50;;;;;;;16.10;100.00;99378.34;106033;1257;72378;-60
2024/04/15 07:52:18;;;;;;;2.70;0.40;;;;;;;16.16;100.00;99374.63;106030;1254;62124;-60
2024/04/15 07:54:46;;;;;;;1.50;0.40;;;;;;;16.21;100.00;99368.59;106125;1257;61047;-60
2024/04/15 07:57:13;;;;;;;1.30;0.50;;;;;;;16.30;100.00;99366.14;106156;1256;74666;-58
2024/04/15 07:59:41;;;;;;;2.40;0.50;;;;;;;16.38;100.00;99364.58;106078;1257;67555;-60
2024/04/15 08:02:09;;;;;;;1.30;1.00;;;;;;;16.42;100.00;99364.44;106007;1256;72384;-60
2024/04/15 08:04:41;;;;;;;3.70;0.60;;;;;;;16.48;100.00;99360.90;105977;1269;61237;-60
2024/04/15 08:07:08;;;;;;;0.50;0.30;;;;;;;16.53;100.00;99359.52;106497;1254;59960;-59
2024/04/15 08:09:41;;;;;;;2.80;0.40;;;;;;;16.57;100.00;99354.72;106348;1256;74565;-60
2024/04/15 08:12:08;;;;;;;0.50;0.40;;;;;;;16.58;100.00;99353.20;106525;1256;66881;-59
2024/04/15 08:14:35;;;;;;;4.00;0.30;;;;;;;16.58;100.00;99348.61;106010;1257;73421;-59
2024/04/15 08:17:01;;;;;;;0.80;0.30;;;;;;;16.60;100.00;99349.73;106004;1257;61507;-60
2024/04/15 08:19:29;;;;;;;2.60;0.40;;;;;;;16.64;100.00;99351.81;106017;1270;61207;-58
2024/04/15 08:21:58;;;;;;;4.30;0.40;;;;;;;16.74;100.00;99355.80;105923;1254;73913;-58
2024/04/15 08:24:25;;;;;;;1.50;0.30;;;;;;;16.83;100.00;99356.14;106046;1256;66967;-59
2024/04/15 08:26:52;;;;;;;1.60;0.30;;;;;;;16.91;100.00;99364.67;106105;1265;73184;-59
2024/04/15 08:29:18;;;;;;;1.80;0.20;;;;;;;17.01;100.00;99359.89;106080;1257;61391;-59
2024/04/15 08:31:45;;;;;;;1.60;0.40;;;;;;;17.11;100.00;99359.15;106148;1257;61357;-60
2024/04/15 08:34:12;;;;;;;3.60;0.30;;;;;;;17.20;100.00;99359.45;106602;1256;74255;-59
2024/04/15 08:36:40;;;;;;;2.30;0.20;;;;;;;17.27;100.00;99356.45;106834;1257;65729;-59
2024/04/15 08:39:06;;;;;;;1.60;0.30;;;;;;;17.33;100.00;99348.75;106100;1256;73106;-62
2024/04/15 08:41:40;;;;;;;1.30;0.30;;;;;;;17.38;100.00;99348.67;106207;1267;60006;-60
2024/04/15 08:44:17;;;;;;;0.50;0.30;;;;;;;17.41;100.00;99357.88;106116;1266;62224;-60
2024/04/15 08:46:44;;;;;;;1.20;0.20;;;;;;;17.38;100.00;99357.73;106165;1253;74705;-59
2024/04/15 08:49:14;;;;;;;3.60;0.30;;;;;;;17.34;100.00;99352.42;106130;1254;66875;-60
2024/04/15 08:51:41;;;;;;;2.20;0.30;;;;;;;17.30;100.00;99359.71;105996;1254;73647;-61
2024/04/15 08:54:08;;;;;;;6.50;0.30;;;;;;;17.24;100.00;99358.55;106006;1256;61248;-61
2024/04/15 08:56:34;;;;;;;1.10;0.40;;;;;;;17.20;100.00;99353.64;106039;1257;61273;-61
2024/04/15 08:59:01;;;;;;;4.70;0.30;;;;;;;17.15;100.00;99342.60;105936;1269;74096;-62
2024/04/15 09:01:31;;;;;;;0.40;0.40;;;;;;;17.13;100.00;99340.08;105995;1258;67826;-64
2024/04/15 09:03:58;;;;;;;1.50;0.30;;;;;;;17.13;100.00;99343.02;105981;1260;73044;-59
2024/04/15 09:06:25;;;;;;;1.30;0.30;;;;;;;17.14;100.00;99345.39;105997;1257;61370;-63
2024/04/15 09:08:52;;;;;;;1.20;0.10;;;;;;;17.17;100.00;99355.89;107036;1259;61340;-60
2024/04/15 09:11:19;;;;;;;1.00;0.30;;;;;;;17.19;100.00;99361.30;106130;1253;75473;-63
2024/04/15 09:13:46;;;;;;;1.90;0.20;;;;;;;17.18;100.00;99374.65;106103;1256;67070;-63
2024/04/15 09:16:12;;;;;;;1.00;0.30;;;;;;;17.14;100.00;99373.20;106071;1253;72484;-61
2024/04/15 09:18:39;;;;;;;6.60;0.60;;;;;;;17.06;100.00;99366.02;106382;1257;61179;-63
2024/04/15 09:21:06;;;;;;;3.10;0.30;;;;;;;16.96;100.00;99379.54;106037;1253;61329;-63
2024/04/15 09:23:33;;;;;;;3.20;0.30;;;;;;;16.84;100.00;99373.65;106013;1259;73160;-62
2024/04/15 09:26:00;;;;;;;4.10;0.40;;;;;;;16.73;100.00;99369.42;106100;1256;67911;-63
2024/04/15 09:28:27;;;;;;;2.40;0.30;;;;;;;16.63;100.00;99374.20;106177;1253;72650;-58
2024/04/15 09:30:55;;;;;;;3.70;0.20;;;;;;;16.55;100.00;99371.14;106186;1257;61328;-61
2024/04/15 09:33:25;;;;;;;4.20;0.30;;;;;;;16.51;100.00;99366.75;106224;1258;60216;-59
2024/04/15 09:35:52;;;;;;;0.60;0.20;;;;;;;16.48;100.00;99369.94;106114;1268;74911;-60
2024/04/15 09:38:19;;;;;;;2.70;0.30;;;;;;;16.49;100.00;99374.94;106804;1253;67531;-58
2024/04/15 09:40:46;;;;;;;3.80;0.30;;;;;;;16.46;100.00;99367.39;105938;1259;72566;-59
2024/04/15 09:43:13;;;;;;;2.90;0.30;;;;;;;16.40;100.00;99357.20;106818;1257;61825;-57
2024/04/15 09:45:39;;;;;;;0.70;0.40;;;;;;;16.34;100.00;99347.14;106138;1257;61309;-60
2024/04/15 09:48:10;;;;;;;2.30;0.30;;;;;;;16.31;100.00;99343.19;106132;1254;75566;-59
2024/04/15 09:50:38;;;;;;;0.90;0.40;;;;;;;16.27;100.00;99340.98;107166;1256;67949;-59
2024/04/15 09:53:08;;;;;;;0.50;0.20;;;;;;;16.21;100.00;99346.83;106005;1254;72522;-60
2024/04/15 09:55:43;;;;;;;3.50;0.30;;;;;;;16.17;100.00;99344.86;105941;1259;61238;-58
2024/04/15 09:58:10;;;;;;;2.60;0.50;;;;;;;16.12;100.00;99345.60;106027;1253;61736;-58
2024/04/15 10:00:37;;;;;;;1.90;0.20;;;;;;;16.08;100.00;99337.75;106027;1253;74327;-58
2024/04/15 10:03:08;;;;;;;1.20;0.50;;;;;;;16.06;100.00;99337.37;106056;1259;67669;-58
2024/04/15 10:05:39;;;;;;;1.20;0.20;;;;;;;16.06;100.00;99333.80;108121;1253;71389;-64
2024/04/15 10:08:06;;;;;;;2.30;0.30;;;;;;;16.03;100.00;99336.01;109049;1254;60916;-58
2024/04/15 10:10:33;;;;;;;1.70;0.30;;;;;;;15.98;100.00;99327.67;109213;1253;60025;-62
2024/04/15 10:13:02;;;;;;;3.10;0.30;;;;;;;15.93;100.00;99323.04;109038;1253;73649;-60
2024/04/15 10:15:32;;;;;;;1.60;0.40;;;;;;;15.86;100.00;99314.81;109091;1253;65995;-60
2024/04/15 10:18:02;;;;;;;1.80;0.30;;;;;;;15.83;100.00;99309.62;107867;1253;70529;-59
2024/04/15 10:20:33;;;;;;;0.70;0.30;;;;;;;15.81;100.00;99302.77;107998;1253;61470;-59
2024/04/15 10:23:04;;;;;;;0.60;0.30;;;;;;;15.79;100.00;99283.94;106958;1253;61901;-61
2024/04/15 10:25:34;;;;;;;2.10;0.30;;;;;;;15.77;100.00;99267.08;108227;1253;74540;-60
2024/04/15 10:28:01;;;;;;;5.20;0.20;;;;;;;15.77;100.00;99250.80;105989;1256;67985;-62
2024/04/15 10:30:29;;;;;;;0.80;0.30;;;;;;;15.79;100.00;99253.17;106210;1256;72935;-59
2024/04/15 10:33:03;;;;;;;4.50;0.30;;;;;;;15.83;100.00;99248.83;106092;1255;61287;-60
2024/04/15 10:35:32;;;;;;;3.00;0.30;;;;;;;15.85;100.00;99239.48;106102;1258;61437;-60
2024/04/15 10:38:00;;;;;;;4.30;0.30;;;;;;;15.89;100.00;99254.17;106149;1253;74012;-60
2024/04/15 10:40:37;;;;;;;5.20;0.30;;;;;;;15.95;100.00;99257.53;106238;1257;66377;-61
2024/04/15 10:43:05;;;;;;;2.70;0.30;;;;;;;15.99;100.00;99244.22;106184;1257;73677;-60
2024/04/15 10:45:32;;;;;;;1.70;0.30;;;;;;;16.03;100.00;99231.34;106114;1256;62131;-60
2024/04/15 10:47:59;;;;;;;2.60;0.30;;;;;;;16.10;100.00;99232.61;106126;1256;61473;-61
2024/04/15 10:50:26;;;;;;;0.40;0.30;;;;;;;16.14;100.00;99240.80;106262;1253;73618;-60
2024/04/15 10:52:53;;;;;;;5.40;0.40;;;;;;;16.15;100.00;99247.27;106087;1257;66079;-60
2024/04/15 10:55:21;;;;;;;3.60;0.30;;;;;;;16.13;100.00;99265.67;106166;1257;72659;-58
2024/04/15 10:57:49;;;;;;;1.90;0.30;;;;;;;16.05;100.00;99273.53;106096;1257;61408;-59
2024/04/15 11:00:19;;;;;;;1.70;0.30;;;;;;;15.95;100.00;99270.17;106522;1255;61122;-62
2024/04/15 11:02:50;;;;;;;0.80;0.30;;;;;;;15.85;100.00;99281.61;106016;1252;192334;-60
2024/04/15 11:06:18;;;;;;;3.60;0.50;;;;;;;15.69;100.00;99294.77;102662;1298;601231;-59
2024/04/15 11:08:45;;;;;;;4.30;0.40;;;;;;;15.53;100.00;99308.91;105281;1268;59746;-58
2024/04/15 11:11:13;;;;;;;0.80;0.30;;;;;;;15.38;100.00;99295.55;105273;1269;59877;-58
2024/04/15 11:13:40;;;;;;;1.60;0.40;;;;;;;15.21;100.00;99306.75;105477;1270;73945;-56
2024/04/15 11:16:11;;;;;;;1.60;0.40;;;;;;;15.03;100.00;99308.99;105468;1266;67015;-57
2024/04/15 11:18:38;;;;;;;2.80;0.40;;;;;;;14.83;100.00;99308.67;105391;1269;70845;-56